Darstellungsparameter: Aktuell verwendete Einstellungen:
Skalierung der Graphiken ... ?
xyx+y,   Skalierungsfaktor:      Skalierung: Modus: x, Faktor: 1
Darstellungszeitraum ... ?
Vom - - bis: - -   Zeitraum: 17.12.2010 - 18.12.2010
Min/Max/Avg-Anzeige ... ?
Zeige MMA aktuell
Zeige MMA Monat
Zeige MMA alles
Zeige --A aktuell
Zeige --A Monat
Zeige --A alles
Keine MMA-Anzeige
MMA:
Minimum Maximum Average (ber die Originaldaten)
MMA-Basis: 14.04.2020 - 16.05.2020
Quicknavigation für Darstellung... ?
Tage:      1T, 2T, 3T, 5T -1T -2T -3T -5T +1T +2T +3T +5T
Wochen: 1W, 2W, 3W -1W -2W -3W +1W +2W +3W
Monate: 1M, 3M, 6M -1M -3M -6M +1M +3M +6M
Jahre:    1J, 3J, 5J, 10J -1J -3J -5J -10J +1J +3J +5J +10J
Nutze für die Darstellung ... ?
Originaldaten oder Mittelwerte auf ...
Stundenbasis Tagesbasis Wochenbasis
Monatsbasis Jahresbasis      Datenbasis: Original-Daten
Darstellen als:
Statistik (Auto) Statistik J:M      Darstellung:
Zur Graphik,    zurück zur Übersicht aller Sensoren.
 
Tabellarische Datenbersicht: ?
 
Sensor: Nr:Datum:Temp:Abs-Feuchte:Windchill:Wind:
Aussen-T/F 1 17-12-2010 00:08:03 -0.5 C 3.79 g/m*3 -0.5 C 0 km/h
2 17-12-2010 00:20:03 -0.3 C 3.84 g/m*3 -0.3 C 0 km/h
3 17-12-2010 00:32:03 -0.3 C 3.84 g/m*3 -0.3 C 0 km/h
4 17-12-2010 00:44:03 -0.1 C 3.9 g/m*3 -0.1 C 0 km/h
5 17-12-2010 00:56:04 -0.2 C 3.87 g/m*3 -0.2 C 0 km/h
6 17-12-2010 01:08:04 -0.2 C 3.87 g/m*3 -0.2 C 0 km/h
7 17-12-2010 01:20:04 -0.3 C 3.89 g/m*3 -0.3 C 0 km/h
8 17-12-2010 01:32:04 -0.4 C 3.86 g/m*3 -0.4 C 0 km/h
9 17-12-2010 01:44:04 -0.4 C 3.91 g/m*3 -0.4 C 0 km/h
10 17-12-2010 01:56:04 -0.4 C 3.86 g/m*3 -0.4 C 0 km/h
11 17-12-2010 02:08:04 -0.5 C 3.79 g/m*3 -0.5 C 0 km/h
12 17-12-2010 02:20:04 -0.5 C 3.7 g/m*3 -0.5 C 0 km/h
13 17-12-2010 02:32:04 -0.6 C 3.58 g/m*3 -0.6 C 0 km/h
14 17-12-2010 02:44:04 -0.6 C 3.53 g/m*3 -0.6 C 0 km/h
15 17-12-2010 02:56:04 -0.7 C 3.51 g/m*3 -0.7 C 0 km/h
16 17-12-2010 03:08:04 -1.1 C 3.37 g/m*3 -1.1 C 0 km/h
17 17-12-2010 03:20:04 -1.3 C 3.36 g/m*3 -1.3 C 0 km/h
18 17-12-2010 03:32:04 -1.2 C 3.39 g/m*3 -1.2 C 0 km/h
19 17-12-2010 03:44:04 -1.2 C 3.34 g/m*3 -1.2 C 0 km/h
20 17-12-2010 03:56:04 -1.2 C 3.34 g/m*3 -1.2 C 0 km/h
21 17-12-2010 04:08:04 -1.1 C 3.23 g/m*3 -1.1 C 0 km/h
22 17-12-2010 04:20:04 -1.2 C 3.12 g/m*3 -1.2 C 0 km/h
23 17-12-2010 04:32:04 -1.3 C 3.14 g/m*3 -1.3 C 0 km/h
24 17-12-2010 04:44:04 -1.3 C 3.14 g/m*3 -1.3 C 0 km/h
25 17-12-2010 04:56:04 -1.5 C 3.14 g/m*3 -1.5 C 0 km/h
Sensor: Nr:Datum:Temp:Abs-Feuchte:Windchill:Wind:
Aussen-T/F 26 17-12-2010 05:08:05 -1.3 C 3.28 g/m*3 -1.3 C 0 km/h
27 17-12-2010 05:20:05 -1.5 C 3.27 g/m*3 -1.5 C 0 km/h
28 17-12-2010 05:32:05 -1.7 C 3.27 g/m*3 -1.7 C 0 km/h
29 17-12-2010 05:44:05 -1.8 C 3.25 g/m*3 -1.8 C 0 km/h
30 17-12-2010 05:56:05 -1.8 C 3.21 g/m*3 -1.8 C 0 km/h
31 17-12-2010 06:08:05 -1.9 C 3.14 g/m*3 -1.9 C 0 km/h
32 17-12-2010 06:20:05 -2.2 C 3.08 g/m*3 -2.2 C 0 km/h
33 17-12-2010 06:32:05 -2.3 C 3.01 g/m*3 -2.3 C 0 km/h
34 17-12-2010 06:44:05 -2.6 C 2.83 g/m*3 -2.6 C 0 km/h
35 17-12-2010 06:56:05 -2.2 C 2.78 g/m*3 -2.2 C 0 km/h
36 17-12-2010 07:08:05 -2.2 C 2.62 g/m*3 -2.2 C 0 km/h
37 17-12-2010 07:20:04 -2.1 C 2.64 g/m*3 -2.1 C 0 km/h
38 17-12-2010 07:32:03 -2.3 C 2.64 g/m*3 -2.3 C 0 km/h
39 17-12-2010 07:44:03 -2.6 C 2.63 g/m*3 -2.6 C 0 km/h
40 17-12-2010 07:56:02 -2.2 C 2.74 g/m*3 -2.2 C 0 km/h
41 17-12-2010 08:08:02 -2.4 C 2.83 g/m*3 -2.4 C 0 km/h
42 17-12-2010 08:20:02 -2.4 C 2.99 g/m*3 -2.4 C 0 km/h
43 17-12-2010 08:32:02 -2.1 C 3.1 g/m*3 -2.1 C 0 km/h
44 17-12-2010 08:44:02 -2.1 C 3.06 g/m*3 -2.1 C 0 km/h
45 17-12-2010 08:56:02 -2.1 C 3.01 g/m*3 -2.1 C 0 km/h
46 17-12-2010 09:08:01 -2 C 2.95 g/m*3 -2 C 0 km/h
47 17-12-2010 09:20:02 -2 C 2.95 g/m*3 -2 C 0 km/h
48 17-12-2010 09:32:02 -1.9 C 3.01 g/m*3 -1.9 C 0 km/h
49 17-12-2010 09:44:02 -1.8 C 3.08 g/m*3 -1.8 C 0 km/h
50 17-12-2010 09:56:02 -1.9 C 3.06 g/m*3 -1.9 C 0 km/h
Sensor: Nr:Datum:Temp:Abs-Feuchte:Windchill:Wind:
Aussen-T/F 51 17-12-2010 10:08:02 -1.9 C 3.01 g/m*3 -1.9 C 0 km/h
52 17-12-2010 10:20:02 -1.8 C 2.95 g/m*3 -1.8 C 0 km/h
53 17-12-2010 10:32:02 -1.7 C 2.88 g/m*3 -1.7 C 0 km/h
54 17-12-2010 10:44:02 -1.8 C 2.86 g/m*3 -1.8 C 0 km/h
55 17-12-2010 10:56:01 -1.1 C 3.05 g/m*3 -1.1 C 0 km/h
56 17-12-2010 11:08:01 -1.5 C 2.92 g/m*3 -1.5 C 0 km/h
57 17-12-2010 11:20:01 -1.4 C 2.86 g/m*3 -1.4 C 0 km/h
58 17-12-2010 11:32:01 -1.1 C 2.78 g/m*3 -1.1 C 0 km/h
59 17-12-2010 11:44:01 -1.1 C 2.56 g/m*3 -1.1 C 0 km/h
60 17-12-2010 11:56:01 -0.9 C 2.55 g/m*3 -0.9 C 0 km/h
61 17-12-2010 12:08:01 -0.6 C 2.6 g/m*3 -0.6 C 0 km/h
62 17-12-2010 12:20:02 -1.2 C 2.54 g/m*3 -1.2 C 0 km/h
63 17-12-2010 12:32:01 -1.4 C 2.51 g/m*3 -1.4 C 0 km/h
64 17-12-2010 12:44:01 -1.2 C 2.54 g/m*3 -1.2 C 0 km/h
65 17-12-2010 12:56:03 -1.3 C 2.43 g/m*3 -1.3 C 0 km/h
66 17-12-2010 13:08:02 -1.9 C 2.38 g/m*3 -1.9 C 0 km/h
67 17-12-2010 13:20:02 -1 C 2.44 g/m*3 -1 C 0 km/h
68 17-12-2010 13:32:02 -1 C 2.44 g/m*3 -1 C 0 km/h
69 17-12-2010 13:44:02 -1 C 2.44 g/m*3 -1 C 0 km/h
70 17-12-2010 13:56:02 -1.2 C 2.45 g/m*3 -1.2 C 0 km/h
71 17-12-2010 14:08:01 -0.6 C 2.56 g/m*3 -0.6 C 0 km/h
72 17-12-2010 14:20:02 -1.1 C 2.51 g/m*3 -1.1 C 0 km/h
73 17-12-2010 14:32:02 -1.6 C 2.6 g/m*3 -1.6 C 0 km/h
74 17-12-2010 14:44:02 -1.8 C 2.74 g/m*3 -1.8 C 0 km/h
75 17-12-2010 14:56:02 -1.9 C 2.84 g/m*3 -1.9 C 0 km/h
Sensor: Nr:Datum:Temp:Abs-Feuchte:Windchill:Wind:
Aussen-T/F 76 17-12-2010 15:08:03 -1.9 C 2.93 g/m*3 -1.9 C 0 km/h
77 17-12-2010 15:20:02 -1.8 C 2.99 g/m*3 -1.8 C 0 km/h
78 17-12-2010 15:32:02 -1.7 C 2.97 g/m*3 -1.7 C 0 km/h
79 17-12-2010 15:44:03 -1.9 C 2.97 g/m*3 -1.9 C 0 km/h
80 17-12-2010 15:56:01 -1.8 C 3.04 g/m*3 -1.8 C 0 km/h
81 17-12-2010 16:08:02 -1.8 C 3.04 g/m*3 -1.8 C 0 km/h
82 17-12-2010 16:20:01 -1.9 C 3.01 g/m*3 -1.9 C 0 km/h
83 17-12-2010 16:32:01 -2.1 C 3.01 g/m*3 -2.1 C 0 km/h
84 17-12-2010 16:44:01 -2 C 3.03 g/m*3 -2 C 0 km/h
85 17-12-2010 16:56:01 -2.6 C 2.91 g/m*3 -2.6 C 0 km/h
86 17-12-2010 17:08:01 -3.4 C 2.83 g/m*3 -3.4 C 0 km/h
87 17-12-2010 17:20:01 -4.3 C 2.72 g/m*3 -4.3 C 0 km/h
88 17-12-2010 17:32:01 -4.2 C 2.81 g/m*3 -4.2 C 0 km/h
89 17-12-2010 17:44:01 -4.1 C 2.83 g/m*3 -4.1 C 0 km/h
90 17-12-2010 17:56:01 -4.3 C 2.79 g/m*3 -4.3 C 0 km/h
91 17-12-2010 18:08:02 -4.6 C 2.77 g/m*3 -4.6 C 0 km/h
92 17-12-2010 18:20:01 -4.8 C 2.76 g/m*3 -4.8 C 0 km/h
93 17-12-2010 18:32:01 -5.6 C 2.61 g/m*3 -5.6 C 0 km/h
94 17-12-2010 18:44:01 -5.8 C 2.6 g/m*3 -5.8 C 0 km/h
95 17-12-2010 18:56:01 -5.3 C 2.73 g/m*3 -5.3 C 0 km/h
96 17-12-2010 19:08:02 -6.2 C 2.53 g/m*3 -6.2 C 0 km/h
97 17-12-2010 19:20:02 -6.5 C 2.5 g/m*3 -6.5 C 0 km/h
98 17-12-2010 19:32:01 -6.1 C 2.61 g/m*3 -6.1 C 0 km/h
99 17-12-2010 19:44:01 -6.7 C 2.47 g/m*3 -6.7 C 0 km/h
100 17-12-2010 19:56:01 -6.9 C 2.43 g/m*3 -6.9 C 0 km/h
Sensor: Nr:Datum:Temp:Abs-Feuchte:Windchill:Wind:
Aussen-T/F 101 17-12-2010 20:08:02 -6.6 C 2.52 g/m*3 -6.6 C 0 km/h
102 17-12-2010 20:20:01 -6.6 C 2.52 g/m*3 -6.6 C 0 km/h
103 17-12-2010 20:32:02 -6.6 C 2.52 g/m*3 -6.6 C 0 km/h
104 17-12-2010 20:44:02 -6.5 C 2.53 g/m*3 -6.5 C 0 km/h
105 17-12-2010 20:56:02 -6.6 C 2.52 g/m*3 -6.6 C 0 km/h
106 17-12-2010 21:08:02 -6.8 C 2.48 g/m*3 -6.8 C 0 km/h
107 17-12-2010 21:20:02 -6.8 C 2.48 g/m*3 -6.8 C 0 km/h
108 17-12-2010 21:32:02 -7 C 2.41 g/m*3 -7 C 0 km/h
109 17-12-2010 21:44:02 -7.1 C 2.4 g/m*3 -7.1 C 0 km/h
110 17-12-2010 21:57:02 -7 C 2.41 g/m*3 -7 C 0 km/h
111 17-12-2010 22:09:02 -7.3 C 2.36 g/m*3 -7.3 C 0 km/h
112 17-12-2010 22:21:02 -7.4 C 2.34 g/m*3 -7.4 C 0 km/h
113 17-12-2010 22:33:02 -7.2 C 2.38 g/m*3 -7.2 C 0 km/h
114 17-12-2010 22:45:02 -6.6 C 2.52 g/m*3 -6.6 C 0 km/h
115 17-12-2010 22:57:02 -6.1 C 2.61 g/m*3 -6.1 C 0 km/h
116 17-12-2010 23:09:02 -6.2 C 2.59 g/m*3 -6.2 C 0 km/h
117 17-12-2010 23:21:02 -6 C 2.63 g/m*3 -6 C 0 km/h
118 17-12-2010 23:33:02 -6 C 2.63 g/m*3 -6 C 0 km/h
119 17-12-2010 23:45:02 -5.8 C 2.7 g/m*3 -5.8 C 0 km/h
120 17-12-2010 23:57:03 -5.5 C 2.76 g/m*3 -5.5 C 0 km/h
121 18-12-2010 00:09:03 -5.2 C 2.82 g/m*3 -5.2 C 0 km/h
122 18-12-2010 00:21:03 -4.9 C 2.92 g/m*3 -4.9 C 0 km/h
123 18-12-2010 00:33:03 -4.7 C 2.96 g/m*3 -4.7 C 0 km/h
124 18-12-2010 00:45:03 -4.5 C 3 g/m*3 -4.5 C 0 km/h
125 18-12-2010 00:57:03 -4.4 C 2.99 g/m*3 -4.4 C 0 km/h
Sensor: Nr:Datum:Temp:Abs-Feuchte:Windchill:Wind:
Aussen-T/F 126 18-12-2010 01:09:03 -4.3 C 2.97 g/m*3 -4.3 C 0 km/h
127 18-12-2010 01:21:03 -4.3 C 2.94 g/m*3 -4.3 C 0 km/h
128 18-12-2010 01:33:03 -4.2 C 2.96 g/m*3 -4.2 C 0 km/h
129 18-12-2010 01:45:03 -4.6 C 2.84 g/m*3 -4.6 C 0 km/h
130 18-12-2010 01:57:03 -4.8 C 2.8 g/m*3 -4.8 C 0 km/h
131 18-12-2010 02:09:03 -5.2 C 2.68 g/m*3 -5.2 C 0 km/h
132 18-12-2010 02:21:03 -5.9 C 2.55 g/m*3 -5.9 C 0 km/h
133 18-12-2010 02:33:03 -5.4 C 2.68 g/m*3 -5.4 C 0 km/h
134 18-12-2010 02:45:03 -5.3 C 2.73 g/m*3 -5.3 C 0 km/h
135 18-12-2010 02:57:03 -4.6 C 2.84 g/m*3 -4.6 C 0 km/h
136 18-12-2010 03:09:03 -4.5 C 2.82 g/m*3 -4.5 C 0 km/h
137 18-12-2010 03:21:03 -4.4 C 2.84 g/m*3 -4.4 C 0 km/h
138 18-12-2010 03:33:03 -4.3 C 2.86 g/m*3 -4.3 C 0 km/h
139 18-12-2010 03:45:03 -4.3 C 2.9 g/m*3 -4.3 C 0 km/h
140 18-12-2010 03:57:03 -4.3 C 2.94 g/m*3 -4.3 C 0 km/h
141 18-12-2010 04:09:03 -4.4 C 2.92 g/m*3 -4.4 C 0 km/h
142 18-12-2010 04:21:04 -4.4 C 2.92 g/m*3 -4.4 C 0 km/h
143 18-12-2010 04:33:04 -4.3 C 2.97 g/m*3 -4.3 C 0 km/h
144 18-12-2010 04:45:04 -4.4 C 2.95 g/m*3 -4.4 C 0 km/h
145 18-12-2010 04:57:04 -4.3 C 2.97 g/m*3 -4.3 C 0 km/h
146 18-12-2010 05:09:04 -4.4 C 2.99 g/m*3 -4.4 C 0 km/h
147 18-12-2010 05:21:04 -4.4 C 2.99 g/m*3 -4.4 C 0 km/h
148 18-12-2010 05:33:04 -4.5 C 2.96 g/m*3 -4.5 C 0 km/h
149 18-12-2010 05:45:04 -4.4 C 2.99 g/m*3 -4.4 C 0 km/h
150 18-12-2010 05:57:04 -4.5 C 2.96 g/m*3 -4.5 C 0 km/h
Sensor: Nr:Datum:Temp:Abs-Feuchte:Windchill:Wind:
Aussen-T/F 151 18-12-2010 06:09:04 -4.4 C 2.99 g/m*3 -4.4 C 0 km/h
152 18-12-2010 06:21:04 -4.4 C 2.99 g/m*3 -4.4 C 0 km/h
153 18-12-2010 06:33:04 -4.4 C 2.99 g/m*3 -4.4 C 0 km/h
154 18-12-2010 06:45:04 -4.3 C 3.01 g/m*3 -4.3 C 0 km/h
155 18-12-2010 06:57:04 -4.2 C 3.07 g/m*3 -4.2 C 0 km/h
156 18-12-2010 07:09:04 -4.2 C 3.07 g/m*3 -4.2 C 0 km/h
157 18-12-2010 07:21:04 -4.8 C 2.9 g/m*3 -4.8 C 0 km/h
158 18-12-2010 07:33:04 -5.4 C 2.78 g/m*3 -5.4 C 0 km/h
159 18-12-2010 07:45:04 -6.2 C 2.62 g/m*3 -6.2 C 0 km/h
160 18-12-2010 07:57:04 -5.7 C 2.72 g/m*3 -5.7 C 0 km/h
161 18-12-2010 08:09:04 -5.3 C 2.83 g/m*3 -5.3 C 0 km/h
162 18-12-2010 08:21:04 -5.3 C 2.83 g/m*3 -5.3 C 0 km/h
163 18-12-2010 08:33:04 -5.5 C 2.76 g/m*3 -5.5 C 0 km/h
164 18-12-2010 08:45:05 -5.4 C 2.78 g/m*3 -5.4 C 0 km/h
165 18-12-2010 08:57:05 -5.2 C 2.79 g/m*3 -5.2 C 0 km/h
166 18-12-2010 09:09:02 -5.2 C 2.75 g/m*3 -5.2 C 0 km/h
167 18-12-2010 09:21:02 -5.1 C 2.74 g/m*3 -5.1 C 0 km/h
168 18-12-2010 09:33:02 -4.9 C 2.71 g/m*3 -4.9 C 0 km/h
169 18-12-2010 09:45:02 -4.6 C 2.73 g/m*3 -4.6 C 0 km/h
170 18-12-2010 09:57:02 -4.4 C 2.7 g/m*3 -4.4 C 0 km/h
171 18-12-2010 10:09:02 -4.2 C 2.67 g/m*3 -4.2 C 0 km/h
172 18-12-2010 10:21:02 -4.1 C 2.65 g/m*3 -4.1 C 0 km/h
173 18-12-2010 10:33:02 -3.8 C 2.71 g/m*3 -3.8 C 0 km/h
174 18-12-2010 10:45:02 -3.5 C 2.73 g/m*3 -3.5 C 0 km/h
175 18-12-2010 10:57:02 -3.5 C 2.65 g/m*3 -3.5 C 0 km/h
Sensor: Nr:Datum:Temp:Abs-Feuchte:Windchill:Wind:
Aussen-T/F 176 18-12-2010 11:09:03 -3.5 C 2.62 g/m*3 -3.5 C 0 km/h
177 18-12-2010 11:21:02 -3.9 C 2.62 g/m*3 -3.9 C 0 km/h
178 18-12-2010 11:33:02 -3.5 C 2.69 g/m*3 -3.5 C 0 km/h
179 18-12-2010 11:45:01 -3.2 C 2.59 g/m*3 -3.2 C 0 km/h
180 18-12-2010 11:57:01 -3.3 C 2.42 g/m*3 -3.3 C 0 km/h
181 18-12-2010 12:09:02 -3.6 C 2.41 g/m*3 -3.6 C 0 km/h
182 18-12-2010 12:21:01 -3.8 C 2.49 g/m*3 -3.8 C 0 km/h
183 18-12-2010 12:33:01 -3.3 C 2.5 g/m*3 -3.3 C 0 km/h
184 18-12-2010 12:45:01 -2.9 C 2.49 g/m*3 -2.9 C 0 km/h
185 18-12-2010 12:57:01 -2.8 C 2.43 g/m*3 -2.8 C 0 km/h
186 18-12-2010 13:09:01 -3 C 2.36 g/m*3 -3 C 0 km/h
187 18-12-2010 13:21:02 -3.2 C 2.32 g/m*3 -3.2 C 0 km/h
188 18-12-2010 13:33:01 -3 C 2.36 g/m*3 -3 C 0 km/h
189 18-12-2010 13:45:03 -2.8 C 2.39 g/m*3 -2.8 C 0 km/h
190 18-12-2010 13:57:03 -2.8 C 2.39 g/m*3 -2.8 C 0 km/h
191 18-12-2010 14:09:02 -3.3 C 2.35 g/m*3 -3.3 C 0 km/h
192 18-12-2010 14:21:02 -3.2 C 2.32 g/m*3 -3.2 C 0 km/h
193 18-12-2010 14:33:02 -3.7 C 2.28 g/m*3 -3.7 C 0 km/h
194 18-12-2010 14:45:02 -4.2 C 2.27 g/m*3 -4.2 C 0 km/h
195 18-12-2010 14:57:02 -4.8 C 2.25 g/m*3 -4.8 C 0 km/h
196 18-12-2010 15:09:01 -4.7 C 2.3 g/m*3 -4.7 C 0 km/h
197 18-12-2010 15:21:02 -5.1 C 2.3 g/m*3 -5.1 C 0 km/h
198 18-12-2010 15:33:02 -5.6 C 2.28 g/m*3 -5.6 C 0 km/h
199 18-12-2010 15:45:02 -5.9 C 2.33 g/m*3 -5.9 C 0 km/h
200 18-12-2010 15:57:02 -6.1 C 2.33 g/m*3 -6.1 C 0 km/h
Sensor: Nr:Datum:Temp:Abs-Feuchte:Windchill:Wind:
Aussen-T/F 201 18-12-2010 16:09:03 -6.6 C 2.3 g/m*3 -6.6 C 0 km/h
202 18-12-2010 16:21:02 -6.9 C 2.25 g/m*3 -6.9 C 0 km/h
203 18-12-2010 16:33:02 -7 C 2.3 g/m*3 -7 C 0 km/h
204 18-12-2010 16:45:01 -7.5 C 2.24 g/m*3 -7.5 C 0 km/h
205 18-12-2010 16:57:01 -7.3 C 2.28 g/m*3 -7.3 C 0 km/h
206 18-12-2010 17:09:02 -7.6 C 2.25 g/m*3 -7.6 C 0 km/h
207 18-12-2010 17:21:01 -7.7 C 2.24 g/m*3 -7.7 C 0 km/h
208 18-12-2010 17:33:01 -7.9 C 2.23 g/m*3 -7.9 C 0 km/h
209 18-12-2010 17:45:01 -7.3 C 2.36 g/m*3 -7.3 C 0 km/h
210 18-12-2010 17:57:01 -7.3 C 2.36 g/m*3 -7.3 C 0 km/h
211 18-12-2010 18:09:01 -6.7 C 2.5 g/m*3 -6.7 C 0 km/h
212 18-12-2010 18:21:02 -6.8 C 2.48 g/m*3 -6.8 C 0 km/h
213 18-12-2010 18:33:01 -6.9 C 2.43 g/m*3 -6.9 C 0 km/h
214 18-12-2010 18:45:02 -6.8 C 2.45 g/m*3 -6.8 C 0 km/h
215 18-12-2010 18:57:02 -6.5 C 2.53 g/m*3 -6.5 C 0 km/h
216 18-12-2010 19:09:01 -5.8 C 2.7 g/m*3 -5.8 C 0 km/h
217 18-12-2010 19:21:02 -5.4 C 2.78 g/m*3 -5.4 C 0 km/h
218 18-12-2010 19:33:01 -5.4 C 2.78 g/m*3 -5.4 C 0 km/h
219 18-12-2010 19:45:02 -5.2 C 2.82 g/m*3 -5.2 C 0 km/h
220 18-12-2010 19:57:02 -4.9 C 2.88 g/m*3 -4.9 C 0 km/h
221 18-12-2010 20:09:02 -4.6 C 2.94 g/m*3 -4.6 C 0 km/h
222 18-12-2010 20:21:02 -4.4 C 2.99 g/m*3 -4.4 C 0 km/h
223 18-12-2010 20:33:02 -4.2 C 2.99 g/m*3 -4.2 C 0 km/h
224 18-12-2010 20:45:01 -4.4 C 2.95 g/m*3 -4.4 C 0 km/h
225 18-12-2010 20:57:01 -4.2 C 2.99 g/m*3 -4.2 C 0 km/h
Sensor: Nr:Datum:Temp:Abs-Feuchte:Windchill:Wind:
Aussen-T/F 226 18-12-2010 21:09:02 -4.1 C 3.01 g/m*3 -4.1 C 0 km/h
227 18-12-2010 21:21:01 -4.1 C 3.01 g/m*3 -4.1 C 0 km/h
228 18-12-2010 21:33:02 -3.9 C 3.06 g/m*3 -3.9 C 0 km/h
229 18-12-2010 21:46:03 -4 C 3.04 g/m*3 -4 C 0 km/h
230 18-12-2010 21:58:03 -3.8 C 3.12 g/m*3 -3.8 C 0 km/h
231 18-12-2010 22:10:03 -3.5 C 3.18 g/m*3 -3.5 C 0 km/h
232 18-12-2010 22:22:03 -3.5 C 3.18 g/m*3 -3.5 C 0 km/h
233 18-12-2010 22:34:03 -3.4 C 3.21 g/m*3 -3.4 C 0 km/h
234 18-12-2010 22:46:03 -3.4 C 3.21 g/m*3 -3.4 C 0 km/h
235 18-12-2010 22:58:03 -3.3 C 3.23 g/m*3 -3.3 C 0 km/h
236 18-12-2010 23:10:03 -3.2 C 3.25 g/m*3 -3.2 C 0 km/h
237 18-12-2010 23:22:03 -3.1 C 3.28 g/m*3 -3.1 C 0 km/h
238 18-12-2010 23:34:03 -3.1 C 3.28 g/m*3 -3.1 C 0 km/h
239 18-12-2010 23:46:03 -3.1 C 3.28 g/m*3 -3.1 C 0 km/h
240 18-12-2010 23:58:03 -2.9 C 3.32 g/m*3 -2.9 C 0 km/h

Legende:
   Min
   Max


Maximal/Minimal-Werte vom 14.04.2020 - 16.05.2020

Sensor Min Max Avg
Temp
(Aussen-T/F)
-0.1 °C
15-04-2020  06:55:00
26.2 °C
17-04-2020  18:05:00
11.98 °C

Die Daten stammen von einer Davis Vantage Pro 2 Wetter-Station und werden unter Linux mit der Software wview2wettercgi und aufbereitet. Alle Angaben erfolgen ohne Gewähr für ihre Vollständigkeit oder Richtigkeit.
Kontakt: Rainer Krienke krienke@uni-koblenz.de . Meine Webseiten an der Uni Koblenz oder privat.
Version: $Revision: 0.78 $